sensor_id;sensor_type;location;lat;lon;timestamp;temperature;humidity
796;DHT22;381;48.770;9.188;2024-02-21T00:00:15;9.20;99.80
796;DHT22;381;48.770;9.188;2024-02-21T00:05:18;9.20;99.90
796;DHT22;381;48.770;9.188;2024-02-21T00:10:20;9.30;99.80
796;DHT22;381;48.770;9.188;2024-02-21T00:15:24;9.30;99.80
796;DHT22;381;48.770;9.188;2024-02-21T00:20:26;9.30;99.60
796;DHT22;381;48.770;9.188;2024-02-21T00:25:29;9.30;99.50
796;DHT22;381;48.770;9.188;2024-02-21T00:30:33;9.30;99.50
796;DHT22;381;48.770;9.188;2024-02-21T00:35:35;9.30;99.50
796;DHT22;381;48.770;9.188;2024-02-21T00:40:37;9.40;99.50
796;DHT22;381;48.770;9.188;2024-02-21T00:45:41;9.40;99.40
796;DHT22;381;48.770;9.188;2024-02-21T00:50:44;9.30;99.30
796;DHT22;381;48.770;9.188;2024-02-21T00:55:46;9.30;99.30
796;DHT22;381;48.770;9.188;2024-02-21T01:00:50;9.40;99.10
796;DHT22;381;48.770;9.188;2024-02-21T01:05:52;9.40;98.90
796;DHT22;381;48.770;9.188;2024-02-21T01:10:54;9.40;98.80
796;DHT22;381;48.770;9.188;2024-02-21T01:15:58;9.40;99.00
796;DHT22;381;48.770;9.188;2024-02-21T01:21:00;9.40;99.20
796;DHT22;381;48.770;9.188;2024-02-21T01:26:03;9.50;98.70
796;DHT22;381;48.770;9.188;2024-02-21T01:31:07;9.50;98.40
796;DHT22;381;48.770;9.188;2024-02-21T01:36:10;9.40;98.60
796;DHT22;381;48.770;9.188;2024-02-21T01:41:12;9.50;98.70
796;DHT22;381;48.770;9.188;2024-02-21T01:46:16;9.50;98.60
796;DHT22;381;48.770;9.188;2024-02-21T01:51:18;9.50;98.50
796;DHT22;381;48.770;9.188;2024-02-21T01:56:21;9.50;99.00
796;DHT22;381;48.770;9.188;2024-02-21T02:01:25;9.50;99.20
796;DHT22;381;48.770;9.188;2024-02-21T02:06:27;9.50;99.20
796;DHT22;381;48.770;9.188;2024-02-21T02:11:31;9.50;99.30
796;DHT22;381;48.770;9.188;2024-02-21T02:16:35;9.60;99.50
796;DHT22;381;48.770;9.188;2024-02-21T02:21:39;9.60;99.40
796;DHT22;381;48.770;9.188;2024-02-21T02:26:46;9.60;99.00
796;DHT22;381;48.770;9.188;2024-02-21T02:31:49;9.60;98.70
796;DHT22;381;48.770;9.188;2024-02-21T02:36:51;9.60;98.10
796;DHT22;381;48.770;9.188;2024-02-21T02:41:57;9.70;98.30
796;DHT22;381;48.770;9.188;2024-02-21T02:46:59;9.60;98.40
796;DHT22;381;48.770;9.188;2024-02-21T02:52:01;9.60;98.20
796;DHT22;381;48.770;9.188;2024-02-21T02:57:05;9.70;98.00
796;DHT22;381;48.770;9.188;2024-02-21T03:02:08;9.70;97.90
796;DHT22;381;48.770;9.188;2024-02-21T03:07:10;9.60;97.60
796;DHT22;381;48.770;9.188;2024-02-21T03:12:14;9.50;98.40
796;DHT22;381;48.770;9.188;2024-02-21T03:17:25;9.20;98.60
796;DHT22;381;48.770;9.188;2024-02-21T03:22:28;9.00;99.60
796;DHT22;381;48.770;9.188;2024-02-21T03:27:31;8.90;99.90
796;DHT22;381;48.770;9.188;2024-02-21T03:32:34;8.90;99.90
796;DHT22;381;48.770;9.188;2024-02-21T03:37:36;8.90;99.90
796;DHT22;381;48.770;9.188;2024-02-21T03:42:40;8.90;99.90
796;DHT22;381;48.770;9.188;2024-02-21T03:47:42;8.90;99.90
796;DHT22;381;48.770;9.188;2024-02-21T03:52:44;8.80;99.90
796;DHT22;381;48.770;9.188;2024-02-21T03:57:48;8.90;99.90
796;DHT22;381;48.770;9.188;2024-02-21T04:02:50;8.90;99.90
796;DHT22;381;48.770;9.188;2024-02-21T04:07:53;9.00;99.90
796;DHT22;381;48.770;9.188;2024-02-21T04:12:57;9.10;99.90
796;DHT22;381;48.770;9.188;2024-02-21T04:17:59;9.10;99.90
796;DHT22;381;48.770;9.188;2024-02-21T04:23:01;9.20;99.90
796;DHT22;381;48.770;9.188;2024-02-21T04:28:05;9.20;99.60
796;DHT22;381;48.770;9.188;2024-02-21T04:33:08;9.20;98.80
796;DHT22;381;48.770;9.188;2024-02-21T04:38:10;9.10;98.60
796;DHT22;381;48.770;9.188;2024-02-21T04:43:14;9.10;98.70
796;DHT22;381;48.770;9.188;2024-02-21T04:48:16;9.10;99.00
796;DHT22;381;48.770;9.188;2024-02-21T04:53:19;9.10;99.30
796;DHT22;381;48.770;9.188;2024-02-21T04:58:23;9.20;99.20
796;DHT22;381;48.770;9.188;2024-02-21T05:03:26;9.20;99.00
796;DHT22;381;48.770;9.188;2024-02-21T05:08:28;9.20;99.10
796;DHT22;381;48.770;9.188;2024-02-21T05:13:32;9.10;99.20
796;DHT22;381;48.770;9.188;2024-02-21T05:18:34;9.10;99.40
796;DHT22;381;48.770;9.188;2024-02-21T05:23:37;9.10;99.20
796;DHT22;381;48.770;9.188;2024-02-21T05:28:41;9.00;98.80
796;DHT22;381;48.770;9.188;2024-02-21T05:33:44;9.00;98.90
796;DHT22;381;48.770;9.188;2024-02-21T05:38:46;8.90;98.10
796;DHT22;381;48.770;9.188;2024-02-21T05:43:50;8.80;97.90
796;DHT22;381;48.770;9.188;2024-02-21T05:48:52;8.80;98.00
796;DHT22;381;48.770;9.188;2024-02-21T05:53:55;8.70;97.70
796;DHT22;381;48.770;9.188;2024-02-21T05:58:58;8.70;97.60
796;DHT22;381;48.770;9.188;2024-02-21T06:04:01;8.70;97.30
796;DHT22;381;48.770;9.188;2024-02-21T06:09:03;8.70;97.30
796;DHT22;381;48.770;9.188;2024-02-21T06:14:07;8.70;97.70
796;DHT22;381;48.770;9.188;2024-02-21T06:19:10;8.70;97.20
796;DHT22;381;48.770;9.188;2024-02-21T06:24:12;8.60;97.00
796;DHT22;381;48.770;9.188;2024-02-21T06:29:16;8.60;97.10
796;DHT22;381;48.770;9.188;2024-02-21T06:34:18;8.60;97.30
796;DHT22;381;48.770;9.188;2024-02-21T06:39:20;8.60;97.10
796;DHT22;381;48.770;9.188;2024-02-21T06:44:26;8.50;96.90
796;DHT22;381;48.770;9.188;2024-02-21T06:49:29;8.50;97.00
796;DHT22;381;48.770;9.188;2024-02-21T06:54:31;8.60;97.00
796;DHT22;381;48.770;9.188;2024-02-21T06:59:35;8.60;96.90
796;DHT22;381;48.770;9.188;2024-02-21T07:04:37;8.60;97.00
796;DHT22;381;48.770;9.188;2024-02-21T07:09:40;8.60;97.20
796;DHT22;381;48.770;9.188;2024-02-21T07:14:44;8.70;97.30
796;DHT22;381;48.770;9.188;2024-02-21T07:19:47;8.80;97.00
796;DHT22;381;48.770;9.188;2024-02-21T07:24:49;8.80;96.90
796;DHT22;381;48.770;9.188;2024-02-21T07:29:53;8.90;97.00
796;DHT22;381;48.770;9.188;2024-02-21T07:34:55;9.00;96.60
796;DHT22;381;48.770;9.188;2024-02-21T07:39:57;9.00;96.80
796;DHT22;381;48.770;9.188;2024-02-21T07:45:01;9.10;96.70
796;DHT22;381;48.770;9.188;2024-02-21T07:50:05;9.30;96.70
796;DHT22;381;48.770;9.188;2024-02-21T07:55:08;9.40;96.70
796;DHT22;381;48.770;9.188;2024-02-21T08:00:13;9.50;96.50
796;DHT22;381;48.770;9.188;2024-02-21T08:05:20;9.60;96.50
796;DHT22;381;48.770;9.188;2024-02-21T08:10:23;9.70;96.60
796;DHT22;381;48.770;9.188;2024-02-21T08:15:27;9.80;96.50
796;DHT22;381;48.770;9.188;2024-02-21T08:20:30;9.90;96.30
796;DHT22;381;48.770;9.188;2024-02-21T08:25:33;10.00;96.20
796;DHT22;381;48.770;9.188;2024-02-21T08:30:36;10.10;96.20
796;DHT22;381;48.770;9.188;2024-02-21T08:35:39;10.20;96.60
796;DHT22;381;48.770;9.188;2024-02-21T08:40:41;10.30;96.70
796;DHT22;381;48.770;9.188;2024-02-21T08:45:45;10.50;95.70
796;DHT22;381;48.770;9.188;2024-02-21T08:50:47;10.60;95.70
796;DHT22;381;48.770;9.188;2024-02-21T08:55:50;10.70;95.00
796;DHT22;381;48.770;9.188;2024-02-21T09:00:53;10.80;95.60
796;DHT22;381;48.770;9.188;2024-02-21T09:05:56;10.90;96.00
796;DHT22;381;48.770;9.188;2024-02-21T09:10:59;11.00;95.50
796;DHT22;381;48.770;9.188;2024-02-21T09:16:04;11.00;94.80
796;DHT22;381;48.770;9.188;2024-02-21T09:21:07;11.10;95.00
796;DHT22;381;48.770;9.188;2024-02-21T09:26:09;11.20;95.30
796;DHT22;381;48.770;9.188;2024-02-21T09:31:16;11.30;95.20
796;DHT22;381;48.770;9.188;2024-02-21T09:36:19;11.30;94.80
796;DHT22;381;48.770;9.188;2024-02-21T09:41:25;11.40;95.10
796;DHT22;381;48.770;9.188;2024-02-21T09:46:38;11.40;94.80
796;DHT22;381;48.770;9.188;2024-02-21T09:51:42;11.40;94.90
796;DHT22;381;48.770;9.188;2024-02-21T09:56:45;11.50;94.00
796;DHT22;381;48.770;9.188;2024-02-21T10:01:49;11.60;94.00
796;DHT22;381;48.770;9.188;2024-02-21T10:06:53;11.60;93.70
796;DHT22;381;48.770;9.188;2024-02-21T10:12:07;11.70;92.90
796;DHT22;381;48.770;9.188;2024-02-21T10:17:16;11.70;92.80
796;DHT22;381;48.770;9.188;2024-02-21T10:22:20;11.70;92.50
796;DHT22;381;48.770;9.188;2024-02-21T10:27:23;11.80;92.90
796;DHT22;381;48.770;9.188;2024-02-21T10:32:27;11.80;92.90
796;DHT22;381;48.770;9.188;2024-02-21T10:37:31;11.90;92.10
796;DHT22;381;48.770;9.188;2024-02-21T10:42:35;12.00;92.70
796;DHT22;381;48.770;9.188;2024-02-21T10:47:44;12.10;92.30
796;DHT22;381;48.770;9.188;2024-02-21T10:52:58;12.30;92.90
796;DHT22;381;48.770;9.188;2024-02-21T10:58:05;12.50;92.20
796;DHT22;381;48.770;9.188;2024-02-21T11:03:09;12.60;92.00
796;DHT22;381;48.770;9.188;2024-02-21T11:08:12;12.80;91.80
796;DHT22;381;48.770;9.188;2024-02-21T11:13:15;12.90;91.70
796;DHT22;381;48.770;9.188;2024-02-21T11:18:24;13.00;91.40
796;DHT22;381;48.770;9.188;2024-02-21T11:23:27;13.10;92.00
796;DHT22;381;48.770;9.188;2024-02-21T11:28:29;13.20;92.60
796;DHT22;381;48.770;9.188;2024-02-21T11:33:33;13.30;92.70
796;DHT22;381;48.770;9.188;2024-02-21T11:38:36;13.30;92.90
796;DHT22;381;48.770;9.188;2024-02-21T11:43:38;13.40;92.00
796;DHT22;381;48.770;9.188;2024-02-21T11:48:44;13.40;91.00
796;DHT22;381;48.770;9.188;2024-02-21T11:53:52;13.40;91.00
796;DHT22;381;48.770;9.188;2024-02-21T11:58:54;13.40;91.40
796;DHT22;381;48.770;9.188;2024-02-21T12:03:58;13.50;91.10
796;DHT22;381;48.770;9.188;2024-02-21T12:09:01;13.50;90.40
796;DHT22;381;48.770;9.188;2024-02-21T12:14:04;13.50;89.20
796;DHT22;381;48.770;9.188;2024-02-21T12:19:07;13.60;87.80
796;DHT22;381;48.770;9.188;2024-02-21T12:24:14;13.60;86.40
796;DHT22;381;48.770;9.188;2024-02-21T12:29:17;13.70;86.40
796;DHT22;381;48.770;9.188;2024-02-21T12:34:20;13.70;88.90
796;DHT22;381;48.770;9.188;2024-02-21T12:39:25;13.70;83.00
796;DHT22;381;48.770;9.188;2024-02-21T12:44:28;13.70;86.80
796;DHT22;381;48.770;9.188;2024-02-21T12:49:32;13.70;84.00
796;DHT22;381;48.770;9.188;2024-02-21T12:54:34;13.70;84.50
796;DHT22;381;48.770;9.188;2024-02-21T12:59:37;13.70;82.20
796;DHT22;381;48.770;9.188;2024-02-21T13:04:40;13.80;82.00
796;DHT22;381;48.770;9.188;2024-02-21T13:09:43;13.80;84.90
796;DHT22;381;48.770;9.188;2024-02-21T13:14:46;13.80;81.60
796;DHT22;381;48.770;9.188;2024-02-21T13:19:49;13.90;80.10
796;DHT22;381;48.770;9.188;2024-02-21T13:24:52;13.90;79.10
796;DHT22;381;48.770;9.188;2024-02-21T13:29:54;13.90;81.30
796;DHT22;381;48.770;9.188;2024-02-21T13:34:58;14.00;77.60
796;DHT22;381;48.770;9.188;2024-02-21T13:40:02;14.00;78.30
796;DHT22;381;48.770;9.188;2024-02-21T13:45:06;14.00;77.60
796;DHT22;381;48.770;9.188;2024-02-21T13:50:10;14.00;78.30
796;DHT22;381;48.770;9.188;2024-02-21T13:55:13;14.00;75.70
796;DHT22;381;48.770;9.188;2024-02-21T14:00:16;14.00;77.70
796;DHT22;381;48.770;9.188;2024-02-21T14:05:20;13.90;75.10
796;DHT22;381;48.770;9.188;2024-02-21T14:10:23;14.00;77.20
796;DHT22;381;48.770;9.188;2024-02-21T14:15:25;14.00;77.70
796;DHT22;381;48.770;9.188;2024-02-21T14:20:29;13.90;80.90
796;DHT22;381;48.770;9.188;2024-02-21T14:25:31;13.90;79.70
796;DHT22;381;48.770;9.188;2024-02-21T14:30:35;13.90;78.30
796;DHT22;381;48.770;9.188;2024-02-21T14:35:38;13.80;78.50
796;DHT22;381;48.770;9.188;2024-02-21T14:40:41;13.80;79.40
796;DHT22;381;48.770;9.188;2024-02-21T14:45:44;13.80;75.60
796;DHT22;381;48.770;9.188;2024-02-21T14:50:49;13.80;77.30
796;DHT22;381;48.770;9.188;2024-02-21T14:55:52;13.80;79.40
796;DHT22;381;48.770;9.188;2024-02-21T15:00:54;13.80;80.00
796;DHT22;381;48.770;9.188;2024-02-21T15:05:58;13.70;81.00
796;DHT22;381;48.770;9.188;2024-02-21T15:11:00;13.70;81.80
796;DHT22;381;48.770;9.188;2024-02-21T15:16:03;13.60;82.50
796;DHT22;381;48.770;9.188;2024-02-21T15:21:08;13.60;79.50
796;DHT22;381;48.770;9.188;2024-02-21T15:26:14;13.50;80.20
796;DHT22;381;48.770;9.188;2024-02-21T15:31:21;13.50;82.80
796;DHT22;381;48.770;9.188;2024-02-21T15:36:26;13.50;79.70
796;DHT22;381;48.770;9.188;2024-02-21T15:41:29;13.50;80.50
796;DHT22;381;48.770;9.188;2024-02-21T15:46:32;13.40;83.10
796;DHT22;381;48.770;9.188;2024-02-21T15:51:36;13.40;83.10
796;DHT22;381;48.770;9.188;2024-02-21T15:56:41;13.40;83.10
796;DHT22;381;48.770;9.188;2024-02-21T16:01:43;13.30;84.90
796;DHT22;381;48.770;9.188;2024-02-21T16:06:47;13.20;86.80
796;DHT22;381;48.770;9.188;2024-02-21T16:11:52;13.10;90.00
796;DHT22;381;48.770;9.188;2024-02-21T16:16:55;13.00;90.80
796;DHT22;381;48.770;9.188;2024-02-21T16:21:59;12.90;90.80
796;DHT22;381;48.770;9.188;2024-02-21T16:27:03;12.80;91.70
796;DHT22;381;48.770;9.188;2024-02-21T16:32:10;12.80;92.10
796;DHT22;381;48.770;9.188;2024-02-21T16:37:13;12.70;91.90
796;DHT22;381;48.770;9.188;2024-02-21T16:42:16;12.70;91.60
796;DHT22;381;48.770;9.188;2024-02-21T16:47:18;12.60;92.00
796;DHT22;381;48.770;9.188;2024-02-21T16:52:22;12.60;91.90
796;DHT22;381;48.770;9.188;2024-02-21T16:57:24;12.50;92.40
796;DHT22;381;48.770;9.188;2024-02-21T17:02:26;12.50;93.30
796;DHT22;381;48.770;9.188;2024-02-21T17:07:31;12.40;93.80
796;DHT22;381;48.770;9.188;2024-02-21T17:12:34;12.40;92.40
796;DHT22;381;48.770;9.188;2024-02-21T17:17:37;12.40;91.90
796;DHT22;381;48.770;9.188;2024-02-21T17:22:41;12.40;92.60
796;DHT22;381;48.770;9.188;2024-02-21T17:27:43;12.40;92.70
796;DHT22;381;48.770;9.188;2024-02-21T17:32:46;12.40;93.40
796;DHT22;381;48.770;9.188;2024-02-21T17:37:49;12.30;93.90
796;DHT22;381;48.770;9.188;2024-02-21T17:42:52;12.30;93.60
796;DHT22;381;48.770;9.188;2024-02-21T17:47:54;12.30;93.10
796;DHT22;381;48.770;9.188;2024-02-21T17:52:58;12.30;93.10
796;DHT22;381;48.770;9.188;2024-02-21T17:58:01;12.30;93.50
796;DHT22;381;48.770;9.188;2024-02-21T18:03:04;12.30;92.00
796;DHT22;381;48.770;9.188;2024-02-21T18:08:07;12.30;91.40
796;DHT22;381;48.770;9.188;2024-02-21T18:13:11;12.40;90.80
796;DHT22;381;48.770;9.188;2024-02-21T18:18:13;12.50;90.00
796;DHT22;381;48.770;9.188;2024-02-21T18:23:17;12.50;90.10
796;DHT22;381;48.770;9.188;2024-02-21T18:28:19;12.60;88.70
796;DHT22;381;48.770;9.188;2024-02-21T18:33:22;12.60;86.40
796;DHT22;381;48.770;9.188;2024-02-21T18:38:26;12.60;84.50
796;DHT22;381;48.770;9.188;2024-02-21T18:43:30;12.70;81.60
796;DHT22;381;48.770;9.188;2024-02-21T18:48:33;12.70;80.60
796;DHT22;381;48.770;9.188;2024-02-21T18:53:36;12.80;81.40
796;DHT22;381;48.770;9.188;2024-02-21T18:58:39;12.80;79.80
796;DHT22;381;48.770;9.188;2024-02-21T19:03:41;12.80;80.20
796;DHT22;381;48.770;9.188;2024-02-21T19:08:45;12.80;78.90
796;DHT22;381;48.770;9.188;2024-02-21T19:13:47;12.80;79.00
796;DHT22;381;48.770;9.188;2024-02-21T19:18:50;12.80;78.30
796;DHT22;381;48.770;9.188;2024-02-21T19:23:53;12.90;77.10
796;DHT22;381;48.770;9.188;2024-02-21T19:28:56;12.90;78.50
796;DHT22;381;48.770;9.188;2024-02-21T19:33:58;12.90;79.20
796;DHT22;381;48.770;9.188;2024-02-21T19:39:02;12.90;81.40
796;DHT22;381;48.770;9.188;2024-02-21T19:44:05;12.80;80.50
796;DHT22;381;48.770;9.188;2024-02-21T19:49:07;12.80;79.40
796;DHT22;381;48.770;9.188;2024-02-21T19:54:11;12.90;79.00
796;DHT22;381;48.770;9.188;2024-02-21T19:59:14;12.90;79.40
796;DHT22;381;48.770;9.188;2024-02-21T20:04:16;12.80;79.50
796;DHT22;381;48.770;9.188;2024-02-21T20:09:20;12.80;80.80
796;DHT22;381;48.770;9.188;2024-02-21T20:14:22;12.80;82.60
796;DHT22;381;48.770;9.188;2024-02-21T20:19:25;12.70;83.40
796;DHT22;381;48.770;9.188;2024-02-21T20:24:28;12.70;81.80
796;DHT22;381;48.770;9.188;2024-02-21T20:29:31;12.70;82.00
796;DHT22;381;48.770;9.188;2024-02-21T20:34:33;12.70;83.10
796;DHT22;381;48.770;9.188;2024-02-21T20:39:38;12.60;83.50
796;DHT22;381;48.770;9.188;2024-02-21T20:44:40;12.60;84.10
796;DHT22;381;48.770;9.188;2024-02-21T20:49:42;12.60;85.60
796;DHT22;381;48.770;9.188;2024-02-21T20:54:46;12.60;86.60
796;DHT22;381;48.770;9.188;2024-02-21T20:59:48;12.60;87.20
796;DHT22;381;48.770;9.188;2024-02-21T21:04:51;12.50;86.80
796;DHT22;381;48.770;9.188;2024-02-21T21:09:55;12.50;86.70
796;DHT22;381;48.770;9.188;2024-02-21T21:14:58;12.60;84.50
796;DHT22;381;48.770;9.188;2024-02-21T21:20:01;12.60;86.80
796;DHT22;381;48.770;9.188;2024-02-21T21:25:08;12.60;86.00
796;DHT22;381;48.770;9.188;2024-02-21T21:30:11;12.60;86.60
796;DHT22;381;48.770;9.188;2024-02-21T21:35:14;12.50;86.80
796;DHT22;381;48.770;9.188;2024-02-21T21:40:18;12.50;87.90
796;DHT22;381;48.770;9.188;2024-02-21T21:45:20;12.50;88.10
796;DHT22;381;48.770;9.188;2024-02-21T21:50:23;12.50;88.10
796;DHT22;381;48.770;9.188;2024-02-21T21:55:27;12.50;86.20
796;DHT22;381;48.770;9.188;2024-02-21T22:00:30;12.50;85.30
796;DHT22;381;48.770;9.188;2024-02-21T22:05:33;12.60;83.90
796;DHT22;381;48.770;9.188;2024-02-21T22:10:36;12.80;83.70
796;DHT22;381;48.770;9.188;2024-02-21T22:15:39;12.90;84.20
796;DHT22;381;48.770;9.188;2024-02-21T22:20:41;12.90;83.30
796;DHT22;381;48.770;9.188;2024-02-21T22:25:45;13.00;84.00
796;DHT22;381;48.770;9.188;2024-02-21T22:30:49;13.00;83.20
796;DHT22;381;48.770;9.188;2024-02-21T22:35:52;13.00;86.50
796;DHT22;381;48.770;9.188;2024-02-21T22:40:56;13.00;86.20
796;DHT22;381;48.770;9.188;2024-02-21T22:45:58;12.90;87.50
796;DHT22;381;48.770;9.188;2024-02-21T22:51:00;12.90;86.40
796;DHT22;381;48.770;9.188;2024-02-21T22:56:05;12.90;86.30
796;DHT22;381;48.770;9.188;2024-02-21T23:01:10;12.90;84.10
796;DHT22;381;48.770;9.188;2024-02-21T23:06:12;12.90;83.20
796;DHT22;381;48.770;9.188;2024-02-21T23:11:16;13.00;82.10
796;DHT22;381;48.770;9.188;2024-02-21T23:16:18;13.00;81.90
796;DHT22;381;48.770;9.188;2024-02-21T23:21:21;13.10;80.90
796;DHT22;381;48.770;9.188;2024-02-21T23:26:29;13.10;79.90
796;DHT22;381;48.770;9.188;2024-02-21T23:31:32;13.10;82.50
796;DHT22;381;48.770;9.188;2024-02-21T23:36:34;13.10;81.90
796;DHT22;381;48.770;9.188;2024-02-21T23:41:38;13.10;83.30
796;DHT22;381;48.770;9.188;2024-02-21T23:46:40;13.10;81.70
796;DHT22;381;48.770;9.188;2024-02-21T23:51:43;13.10;81.80
796;DHT22;381;48.770;9.188;2024-02-21T23:56:46;13.20;80.70
